Clarcona, FL (32710)

2:49 PM EST on December 10, 2016 (GMT -0500)
Silver Bend | | Change Station

Elev 151 ft 28.57 °N, 81.51 °W | Updated 30 seconds ago

Partly Cloudy
Partly Cloudy
72.1 °F
Feels Like 77 °F
N
2.0
Wind Variable Wind from ESE

Today
High -- | Low -- °F
--% Chance of Precip.
Yesterday
High -- | Low -- °F
Precip. -- in
Pressure 30.30 in
Visibility 10.0 miles
Clouds Clear
Heat Index 77 °F
Dew Point 52 °F
Humidity 50%
Rainfall 0.00 in
Snow Depth Not available.
7:08 AM 5:29 PM
Waxing Gibbous, 86% visible
METAR KORL 101853Z 07011KT 10SM CLR 22/12 A3029 RMK AO2 SLP259 T02220117
Pressure 30.30 in
Visibility 10.0 miles
Clouds Clear
Heat Index 77 °F
Dew Point 52 °F
Humidity 50%
Rainfall 0.00 in
Snow Depth Not available.
7:08 AM 5:29 PM
Waxing Gibbous, 86% visible
METAR KORL 101853Z 07011KT 10SM CLR 22/12 A3029 RMK AO2 SLP259 T02220117

10-Day Weather Forecast

Almanac

Astronomy

Dec. 10, 2016 Rise Set
Actual Time
Civil Twilight
Nautical Twilight
Astronomical Twilight
Moon
Length of Visible Light
Length of Day
Tomorrow will be .
, % of the Moon is Illuminated

Today's Extremes

State Highs State Lows

Community

WunderPhotos

Upload Photos

1,956,646 photos uploaded!

WunderBlog® & News

Nearby

Air Quality

  Air Quality AQ Index Pollutant
Not available.

Snow Depth

Station Depth Elevation

Earthquake Activity

City Distance Mag. Time & Date
Minimum magnitude displayed is 2.5.

Coastal Water Temperatures

Place Temperature

Stations

Nearby Weather Stations

Station Location Temp. Windchill Dew Point Humidity Wind Precip. Elev Updated Type
                   

Watches & Warnings

There are currently no watches in effect.